createdAt,value
2023-05-14T00:01:13.169Z,78.72
2023-05-14T00:03:58.718Z,72.68
2023-05-14T00:06:43.909Z,74.55
2023-05-14T00:09:30.328Z,97.63
2023-05-14T00:12:15.572Z,125.60
2023-05-14T00:15:01.064Z,139.05
2023-05-14T00:17:46.502Z,132.43
2023-05-14T00:20:31.794Z,118.20
2023-05-14T00:23:16.655Z,122.75
2023-05-14T00:26:01.591Z,112.65
2023-05-14T00:28:46.509Z,108.93
2023-05-14T00:31:31.706Z,104.75
2023-05-14T00:34:16.488Z,99.22
2023-05-14T00:37:01.466Z,102.32
2023-05-14T00:39:46.332Z,149.70
2023-05-14T00:42:31.168Z,212.13
2023-05-14T00:45:16.213Z,219.70
2023-05-14T00:48:01.432Z,196.07
2023-05-14T00:50:47.745Z,177.85
2023-05-14T00:53:33.413Z,171.40
2023-05-14T00:56:19.308Z,157.35
2023-05-14T00:59:04.413Z,169.43
2023-05-14T01:01:49.421Z,159.93
2023-05-14T01:04:35.303Z,147.40
2023-05-14T01:07:33.651Z,142.65
2023-05-14T01:10:27.320Z,118.85
2023-05-14T01:13:22.774Z,120.55
2023-05-14T01:16:13.681Z,108.70
2023-05-14T01:19:00.796Z,91.70
2023-05-14T01:21:46.210Z,97.00
2023-05-14T01:24:31.637Z,93.25
2023-05-14T01:27:34.653Z,152.02
2023-05-14T01:30:22.297Z,135.27
2023-05-14T01:33:13.189Z,121.10
2023-05-14T01:35:58.564Z,118.65
2023-05-14T01:38:45.774Z,116.05
2023-05-14T01:41:31.962Z,118.72
2023-05-14T01:44:18.194Z,100.05
2023-05-14T01:47:03.566Z,88.75
2023-05-14T01:49:48.688Z,83.68
2023-05-14T01:52:33.654Z,74.00
2023-05-14T01:55:18.648Z,76.07
2023-05-14T01:58:03.865Z,75.55
2023-05-14T02:00:48.847Z,69.22
2023-05-14T02:03:33.689Z,60.40
2023-05-14T02:06:18.860Z,63.08
2023-05-14T02:09:05.345Z,55.38
2023-05-14T02:11:50.460Z,56.80
2023-05-14T02:14:35.918Z,50.50
2023-05-14T02:17:20.734Z,42.03
2023-05-14T02:20:06.381Z,45.47
2023-05-14T02:22:51.723Z,42.20
2023-05-14T02:25:37.543Z,41.50
2023-05-14T02:28:22.660Z,38.72
2023-05-14T02:31:07.423Z,33.78
2023-05-14T02:33:52.334Z,31.48
2023-05-14T02:36:37.219Z,34.85
2023-05-14T02:39:22.176Z,23.65
2023-05-14T02:42:07.502Z,25.42
2023-05-14T02:44:52.910Z,28.38
2023-05-14T02:47:38.449Z,23.35
2023-05-14T02:50:23.904Z,20.27
2023-05-14T02:53:09.091Z,23.63
2023-05-14T02:55:54.058Z,21.13
2023-05-14T02:58:39.130Z,20.40
2023-05-14T03:01:24.110Z,16.70
2023-05-14T03:04:09.405Z,19.55
2023-05-14T03:06:54.440Z,19.38
2023-05-14T03:09:39.192Z,14.52
2023-05-14T03:12:24.040Z,13.90
2023-05-14T03:15:09.517Z,12.75
2023-05-14T03:17:54.767Z,13.20
2023-05-14T03:20:40.214Z,13.60
2023-05-14T03:23:25.152Z,11.45
2023-05-14T03:26:10.029Z,10.18
2023-05-14T03:28:54.897Z,9.15
2023-05-14T03:31:39.972Z,11.20
2023-05-14T03:34:25.085Z,9.63
2023-05-14T03:37:10.917Z,7.35
2023-05-14T03:39:55.948Z,6.78
2023-05-14T03:42:40.808Z,6.63
2023-05-14T03:45:26.883Z,8.43
2023-05-14T03:48:12.021Z,8.20
2023-05-14T03:50:57.160Z,5.93
2023-05-14T03:53:42.030Z,5.25
2023-05-14T03:56:27.166Z,5.28
2023-05-14T03:59:12.165Z,5.97
2023-05-14T04:01:57.209Z,3.20
2023-05-14T04:04:42.327Z,3.65
2023-05-14T04:07:27.292Z,5.90
2023-05-14T04:10:13.694Z,5.40
2023-05-14T04:12:58.582Z,5.82
2023-05-14T04:15:43.760Z,3.70
2023-05-14T04:18:28.732Z,4.68
2023-05-14T04:21:13.620Z,2.47
2023-05-14T04:23:58.503Z,3.15
2023-05-14T04:26:43.440Z,3.50
2023-05-14T04:29:28.377Z,3.30
2023-05-14T04:32:13.193Z,2.83
2023-05-14T04:34:58.071Z,3.45
2023-05-14T04:37:42.889Z,2.25
2023-05-14T04:40:27.937Z,2.38
2023-05-14T04:43:12.910Z,2.15
2023-05-14T04:45:57.791Z,3.38
2023-05-14T04:48:42.877Z,2.15
2023-05-14T04:51:28.559Z,0.93
2023-05-14T04:54:13.551Z,1.55
2023-05-14T04:57:03.052Z,2.90
2023-05-14T04:59:47.957Z,1.83
2023-05-14T05:02:34.710Z,0.65
2023-05-14T05:05:20.136Z,1.90
2023-05-14T05:08:05.273Z,1.02
2023-05-14T05:10:50.431Z,0.80
2023-05-14T05:13:35.440Z,7.15
2023-05-14T05:16:20.618Z,25.67
2023-05-14T05:19:05.873Z,53.20
2023-05-14T05:21:51.217Z,64.40
2023-05-14T05:24:36.057Z,74.03
2023-05-14T05:27:22.015Z,64.22
2023-05-14T05:30:08.307Z,64.45
2023-05-14T05:32:53.375Z,50.80
2023-05-14T05:35:38.550Z,56.67
2023-05-14T05:38:23.206Z,53.25
2023-05-14T05:41:08.112Z,50.60
2023-05-14T05:43:52.982Z,48.50
2023-05-14T05:46:37.978Z,45.50
2023-05-14T05:49:23.024Z,41.83
2023-05-14T05:52:08.511Z,42.50
2023-05-14T05:54:53.682Z,36.10
2023-05-14T05:57:38.709Z,36.17
2023-05-14T06:00:24.690Z,31.42
2023-05-14T06:03:09.861Z,31.45
2023-05-14T06:05:55.271Z,32.53
2023-05-14T06:08:40.328Z,26.35
2023-05-14T06:11:25.579Z,26.00
2023-05-14T06:14:10.840Z,25.83
2023-05-14T06:16:55.842Z,26.73
2023-05-14T06:19:41.158Z,24.83
2023-05-14T06:22:26.117Z,21.08
2023-05-14T06:25:11.503Z,20.75
2023-05-14T06:27:56.510Z,18.48
2023-05-14T06:30:41.832Z,17.73
2023-05-14T06:33:30.840Z,16.33
2023-05-14T06:36:15.989Z,16.15
2023-05-14T06:39:01.011Z,16.15
2023-05-14T06:41:45.884Z,14.27
2023-05-14T06:44:31.034Z,13.38
2023-05-14T06:47:16.020Z,15.88
2023-05-14T06:50:01.909Z,11.20
2023-05-14T06:52:47.091Z,12.43
2023-05-14T06:55:32.093Z,13.32
2023-05-14T06:58:16.873Z,10.45
2023-05-14T07:01:01.873Z,11.57
2023-05-14T07:03:46.717Z,11.70
2023-05-14T07:06:32.570Z,8.48
2023-05-14T07:09:17.334Z,10.73
2023-05-14T07:12:02.170Z,6.53
2023-05-14T07:14:46.953Z,8.80
2023-05-14T07:17:31.875Z,7.85
2023-05-14T07:20:16.817Z,6.40
2023-05-14T07:23:01.747Z,9.85
2023-05-14T07:25:46.792Z,9.07
2023-05-14T07:28:31.969Z,9.10
2023-05-14T07:31:16.962Z,5.53
2023-05-14T07:34:01.944Z,3.83
2023-05-14T07:36:47.303Z,5.18
2023-05-14T07:39:32.170Z,4.38
2023-05-14T07:42:27.900Z,4.53
2023-05-14T07:45:19.904Z,5.50
2023-05-14T07:48:05.593Z,5.50
2023-05-14T07:50:51.582Z,5.53
2023-05-14T07:53:36.479Z,3.75
2023-05-14T07:56:22.674Z,2.92
2023-05-14T07:59:07.977Z,3.42
2023-05-14T08:01:52.872Z,5.47
2023-05-14T08:04:39.302Z,2.30
2023-05-14T08:07:24.319Z,3.53
2023-05-14T08:10:09.657Z,3.60
2023-05-14T08:12:54.895Z,2.70
2023-05-14T08:15:39.991Z,1.95
2023-05-14T08:18:24.948Z,2.97
2023-05-14T08:21:10.167Z,2.42
2023-05-14T08:23:55.313Z,2.67
2023-05-14T08:26:40.381Z,5.03
2023-05-14T08:29:25.935Z,3.95
2023-05-14T08:32:22.141Z,6.65
2023-05-14T08:35:08.720Z,5.18
2023-05-14T08:37:53.939Z,2.85
2023-05-14T08:40:39.362Z,3.85
2023-05-14T08:43:27.047Z,5.75
2023-05-14T08:46:13.962Z,3.17
2023-05-14T08:49:16.589Z,5.57
2023-05-14T08:52:02.112Z,4.03
2023-05-14T08:54:48.359Z,2.25
2023-05-14T08:57:34.109Z,3.50
2023-05-14T09:00:19.242Z,3.42
2023-05-14T09:03:07.093Z,3.10
2023-05-14T09:05:52.388Z,2.30
2023-05-14T09:08:38.767Z,2.47
2023-05-14T09:11:24.687Z,1.85
2023-05-14T09:14:10.172Z,3.05
2023-05-14T09:16:55.775Z,3.40
2023-05-14T09:19:41.012Z,2.72
2023-05-14T09:22:31.799Z,3.70
2023-05-14T09:25:17.050Z,1.85
2023-05-14T09:28:06.674Z,1.17
2023-05-14T09:30:52.232Z,1.65
2023-05-14T09:33:37.256Z,1.52
2023-05-14T09:36:23.222Z,1.35
2023-05-14T09:39:08.114Z,2.75
2023-05-14T09:41:53.505Z,1.80
2023-05-14T09:44:39.159Z,1.42
2023-05-14T09:47:24.328Z,18.92
2023-05-14T09:50:09.939Z,47.97
2023-05-14T09:52:56.115Z,73.68
2023-05-14T09:55:41.667Z,69.38
2023-05-14T09:58:27.004Z,73.93
2023-05-14T10:01:13.327Z,74.60
2023-05-14T10:03:59.101Z,70.05
2023-05-14T10:06:50.358Z,66.63
2023-05-14T10:09:38.352Z,58.95
2023-05-14T10:12:26.145Z,50.35
2023-05-14T10:15:20.346Z,46.95
2023-05-14T10:18:11.017Z,46.33
2023-05-14T10:21:06.259Z,42.22
2023-05-14T10:23:52.273Z,42.90
2023-05-14T10:26:39.435Z,77.95
2023-05-14T10:29:34.076Z,93.05
2023-05-14T10:32:20.926Z,91.75
2023-05-14T10:35:16.675Z,98.90
2023-05-14T10:38:02.098Z,146.98
2023-05-14T10:40:47.644Z,140.07
2023-05-14T10:43:37.855Z,130.77
2023-05-14T10:46:23.092Z,117.07
2023-05-14T10:49:08.105Z,118.10
2023-05-14T10:51:54.092Z,107.32
2023-05-14T10:54:39.303Z,104.03
2023-05-14T10:57:27.545Z,96.97
2023-05-14T11:00:13.995Z,97.50
2023-05-14T11:03:00.425Z,127.25
2023-05-14T11:05:46.222Z,136.75
2023-05-14T11:08:32.485Z,133.40
2023-05-14T11:11:19.174Z,127.32
2023-05-14T11:14:04.389Z,124.35
2023-05-14T11:16:50.305Z,116.75
2023-05-14T11:19:36.119Z,96.55
2023-05-14T11:22:21.212Z,88.38
2023-05-14T11:25:07.399Z,85.68
2023-05-14T11:27:55.941Z,80.97
2023-05-14T11:30:40.911Z,74.95
2023-05-14T11:33:27.777Z,69.40
2023-05-14T11:36:12.992Z,60.92
2023-05-14T11:38:58.207Z,64.60
2023-05-14T11:41:46.040Z,54.47
2023-05-14T11:44:32.190Z,57.00
2023-05-14T11:47:19.083Z,51.60
2023-05-14T11:50:04.426Z,48.83
2023-05-14T11:52:50.823Z,49.70
2023-05-14T11:55:36.448Z,41.35
2023-05-14T11:58:21.985Z,36.53
2023-05-14T12:01:06.965Z,31.63
2023-05-14T12:03:52.252Z,28.02
2023-05-14T12:06:39.051Z,32.55
2023-05-14T12:09:24.111Z,29.17
2023-05-14T12:12:11.436Z,29.85
2023-05-14T12:14:59.805Z,23.65
2023-05-14T12:17:52.269Z,24.65
2023-05-14T12:20:37.604Z,23.13
2023-05-14T12:23:30.914Z,19.92
2023-05-14T12:26:16.117Z,22.67
2023-05-14T12:29:02.416Z,17.40
2023-05-14T12:31:49.761Z,20.30
2023-05-14T12:34:37.327Z,15.38
2023-05-14T12:37:22.701Z,17.33
2023-05-14T12:40:09.797Z,15.57
2023-05-14T12:42:56.702Z,14.55
2023-05-14T12:45:41.821Z,12.95
2023-05-14T12:48:26.794Z,11.90
2023-05-14T12:51:12.479Z,11.57
2023-05-14T12:53:57.352Z,9.60
2023-05-14T12:56:42.661Z,9.95
2023-05-14T12:59:27.637Z,12.73
2023-05-14T13:02:13.607Z,13.93
2023-05-14T13:05:02.760Z,11.80
2023-05-14T13:07:47.765Z,10.60
2023-05-14T13:10:33.206Z,9.82
2023-05-14T13:13:18.370Z,7.80
2023-05-14T13:16:04.057Z,8.63
2023-05-14T13:18:48.858Z,7.25
2023-05-14T13:21:34.032Z,6.03
2023-05-14T13:24:18.874Z,5.32
2023-05-14T13:27:04.451Z,7.10
2023-05-14T13:29:49.459Z,6.50
2023-05-14T13:32:34.615Z,6.78
2023-05-14T13:35:19.722Z,5.30
2023-05-14T13:38:04.841Z,4.85
2023-05-14T13:40:49.810Z,4.50
2023-05-14T13:43:36.007Z,5.63
2023-05-14T13:46:21.337Z,3.35
2023-05-14T13:49:07.827Z,3.63
2023-05-14T13:51:52.885Z,4.97
2023-05-14T13:54:37.843Z,3.42
2023-05-14T13:57:23.090Z,2.95
2023-05-14T14:00:09.022Z,2.75
2023-05-14T14:02:54.024Z,2.35
2023-05-14T14:05:39.053Z,2.67
2023-05-14T14:08:24.777Z,2.75
2023-05-14T14:11:10.024Z,4.47
2023-05-14T14:13:55.275Z,3.25
2023-05-14T14:16:40.794Z,2.15
2023-05-14T14:19:25.798Z,1.88
2023-05-14T14:22:12.566Z,2.22
2023-05-14T14:24:57.717Z,2.08
2023-05-14T14:27:42.670Z,2.55
2023-05-14T14:30:27.982Z,2.13
2023-05-14T14:33:13.112Z,2.97
2023-05-14T14:35:57.977Z,1.95
2023-05-14T14:38:42.798Z,1.85
2023-05-14T14:41:27.806Z,2.33
2023-05-14T14:44:12.825Z,2.45
2023-05-14T14:46:57.997Z,2.20
2023-05-14T14:49:42.910Z,1.40
2023-05-14T14:52:28.424Z,1.30
2023-05-14T14:55:13.576Z,1.50
2023-05-14T14:57:58.442Z,1.10
2023-05-14T15:00:43.694Z,1.75
2023-05-14T15:03:28.938Z,1.38
2023-05-14T15:06:14.593Z,1.33
2023-05-14T15:08:59.782Z,1.42
2023-05-14T15:11:44.838Z,1.10
2023-05-14T15:14:29.738Z,1.25
2023-05-14T15:17:14.515Z,0.57
2023-05-14T15:19:59.414Z,1.10
2023-05-14T15:22:44.564Z,0.38
2023-05-14T15:25:29.949Z,0.73
2023-05-14T15:28:15.002Z,1.08
2023-05-14T15:31:00.007Z,1.17
2023-05-14T15:33:45.352Z,1.17
2023-05-14T15:36:30.952Z,2.13
2023-05-14T15:39:16.313Z,2.05
2023-05-14T15:42:01.414Z,1.52
2023-05-14T15:44:46.734Z,1.70
2023-05-14T15:47:32.200Z,1.27
2023-05-14T15:50:17.499Z,1.70
2023-05-14T15:53:02.707Z,1.67
2023-05-14T15:55:48.399Z,0.88
2023-05-14T15:58:33.728Z,1.25
2023-05-14T16:01:19.261Z,1.35
2023-05-14T16:04:04.886Z,1.33
2023-05-14T16:06:51.114Z,1.33
2023-05-14T16:09:36.952Z,4.03
2023-05-14T16:12:22.188Z,19.63
2023-05-14T16:15:08.312Z,37.17
2023-05-14T16:17:53.416Z,40.08
2023-05-14T16:20:38.560Z,50.25
2023-05-14T16:23:23.648Z,52.10
2023-05-14T16:26:08.953Z,79.13
2023-05-14T16:28:54.107Z,93.30
2023-05-14T16:31:39.476Z,94.65
2023-05-14T16:34:24.705Z,85.18
2023-05-14T16:37:11.350Z,81.97
2023-05-14T16:39:58.228Z,78.00
2023-05-14T16:42:43.576Z,71.35
2023-05-14T16:45:28.747Z,62.55
2023-05-14T16:48:14.076Z,65.82
2023-05-14T16:50:59.475Z,100.68
2023-05-14T16:53:44.399Z,156.05
2023-05-14T16:56:30.311Z,132.52
2023-05-14T16:59:15.967Z,129.02
2023-05-14T17:02:01.055Z,106.75
2023-05-14T17:04:46.462Z,110.60
2023-05-14T17:07:31.661Z,112.25
2023-05-14T17:10:16.858Z,126.80
2023-05-14T17:13:02.574Z,122.10
2023-05-14T17:15:47.977Z,125.35
2023-05-14T17:18:32.897Z,127.70
2023-05-14T17:21:18.287Z,124.43
2023-05-14T17:24:03.079Z,119.53
2023-05-14T17:26:47.978Z,107.95
2023-05-14T17:29:33.217Z,105.15
2023-05-14T17:32:18.553Z,96.90
2023-05-14T17:35:03.739Z,91.53
2023-05-14T17:37:48.952Z,85.30
2023-05-14T17:40:34.633Z,81.15
2023-05-14T17:43:19.530Z,74.28
2023-05-14T17:46:05.168Z,75.50
2023-05-14T17:48:50.280Z,68.35
2023-05-14T17:51:35.445Z,68.18
2023-05-14T17:54:20.423Z,55.88
2023-05-14T17:57:05.752Z,62.40
2023-05-14T17:59:50.908Z,55.95
2023-05-14T18:02:35.962Z,52.08
2023-05-14T18:05:21.612Z,43.83
2023-05-14T18:08:06.742Z,45.38
2023-05-14T18:10:51.767Z,38.00
2023-05-14T18:13:36.585Z,36.90
2023-05-14T18:16:21.415Z,33.25
2023-05-14T18:19:06.497Z,32.60
2023-05-14T18:21:51.917Z,30.20
2023-05-14T18:24:37.068Z,30.30
2023-05-14T18:27:21.955Z,30.95
2023-05-14T18:30:07.712Z,26.05
2023-05-14T18:32:52.804Z,26.60
2023-05-14T18:35:38.118Z,24.08
2023-05-14T18:38:23.438Z,23.08
2023-05-14T18:41:08.483Z,20.98
2023-05-14T18:43:53.642Z,23.17
2023-05-14T18:46:38.557Z,18.88
2023-05-14T18:49:23.351Z,17.88
2023-05-14T18:52:08.534Z,18.10
2023-05-14T18:54:54.766Z,16.88
2023-05-14T18:57:39.833Z,15.70
2023-05-14T19:00:24.737Z,15.10
2023-05-14T19:03:09.813Z,12.60
2023-05-14T19:05:55.270Z,13.05
2023-05-14T19:08:40.432Z,11.77
2023-05-14T19:11:26.036Z,12.88
2023-05-14T19:14:11.454Z,10.00
2023-05-14T19:16:56.849Z,7.38
2023-05-14T19:19:41.971Z,11.00
2023-05-14T19:22:26.998Z,6.90
2023-05-14T19:25:12.115Z,9.13
2023-05-14T19:27:57.739Z,7.30
2023-05-14T19:30:42.941Z,6.20
2023-05-14T19:33:28.742Z,7.32
2023-05-14T19:36:13.561Z,6.35
2023-05-14T19:38:58.696Z,6.93
2023-05-14T19:41:43.813Z,7.00
2023-05-14T19:44:28.967Z,4.35
2023-05-14T19:47:14.359Z,4.32
2023-05-14T19:49:59.456Z,5.10
2023-05-14T19:52:44.449Z,4.03
2023-05-14T19:55:29.681Z,5.20
2023-05-14T19:58:14.454Z,4.32
2023-05-14T20:01:00.746Z,3.72
2023-05-14T20:03:45.938Z,4.35
2023-05-14T20:06:32.076Z,5.82
2023-05-14T20:09:16.966Z,5.72
2023-05-14T20:12:01.784Z,4.88
2023-05-14T20:14:46.821Z,2.22
2023-05-14T20:17:31.723Z,15.73
2023-05-14T20:20:16.771Z,177.55
2023-05-14T20:23:02.122Z,174.57
2023-05-14T20:25:47.804Z,149.32
2023-05-14T20:28:32.994Z,118.63
2023-05-14T20:31:19.089Z,90.15
2023-05-14T20:34:04.332Z,83.00
2023-05-14T20:36:49.256Z,78.97
2023-05-14T20:39:34.239Z,73.00
2023-05-14T20:42:19.547Z,70.47
2023-05-14T20:45:05.117Z,64.97
2023-05-14T20:47:50.462Z,57.50
2023-05-14T20:50:36.458Z,61.20
2023-05-14T20:53:21.608Z,53.15
2023-05-14T20:56:07.015Z,53.00
2023-05-14T20:58:51.815Z,53.70
2023-05-14T21:01:36.859Z,47.35
2023-05-14T21:04:21.902Z,46.17
2023-05-14T21:07:07.155Z,44.42
2023-05-14T21:09:52.716Z,37.50
2023-05-14T21:12:38.118Z,41.58
2023-05-14T21:15:23.697Z,38.95
2023-05-14T21:18:09.230Z,31.05
2023-05-14T21:20:54.385Z,29.75
2023-05-14T21:23:39.317Z,30.10
2023-05-14T21:26:25.819Z,26.38
2023-05-14T21:29:11.302Z,29.15
2023-05-14T21:31:56.237Z,28.17
2023-05-14T21:34:41.266Z,24.30
2023-05-14T21:37:26.029Z,24.58
2023-05-14T21:40:12.497Z,23.02
2023-05-14T21:42:57.759Z,22.15
2023-05-14T21:45:43.833Z,19.08
2023-05-14T21:48:29.244Z,17.27
2023-05-14T21:51:14.538Z,18.15
2023-05-14T21:53:59.707Z,15.23
2023-05-14T21:56:44.667Z,14.10
2023-05-14T21:59:29.891Z,16.10
2023-05-14T22:02:14.880Z,14.80
2023-05-14T22:05:00.207Z,16.13
2023-05-14T22:07:45.689Z,11.55
2023-05-14T22:10:31.297Z,11.88
2023-05-14T22:13:16.592Z,10.20
2023-05-14T22:16:12.172Z,9.75
2023-05-14T22:18:58.797Z,9.32
2023-05-14T22:21:43.897Z,10.60
2023-05-14T22:24:28.712Z,9.68
2023-05-14T22:27:13.585Z,8.75
2023-05-14T22:29:59.116Z,7.15
2023-05-14T22:32:44.343Z,8.73
2023-05-14T22:35:29.445Z,8.55
2023-05-14T22:38:14.491Z,7.85
2023-05-14T22:40:59.545Z,7.47
2023-05-14T22:43:44.716Z,6.47
2023-05-14T22:46:29.992Z,5.78
2023-05-14T22:49:15.515Z,5.78
2023-05-14T22:52:00.438Z,4.35
2023-05-14T22:54:46.585Z,5.65
2023-05-14T22:57:32.910Z,3.65
2023-05-14T23:00:18.199Z,5.90
2023-05-14T23:03:03.576Z,3.65
2023-05-14T23:05:48.730Z,3.08
2023-05-14T23:08:33.578Z,3.72
2023-05-14T23:11:18.984Z,5.50
2023-05-14T23:14:03.879Z,3.58
2023-05-14T23:16:49.279Z,4.30
2023-05-14T23:19:34.532Z,2.13
2023-05-14T23:22:20.271Z,2.42
2023-05-14T23:25:06.979Z,2.13
2023-05-14T23:27:52.123Z,3.47
2023-05-14T23:30:37.247Z,2.47
2023-05-14T23:33:22.347Z,1.77
2023-05-14T23:36:07.953Z,2.08
2023-05-14T23:38:53.301Z,3.10
2023-05-14T23:41:38.398Z,1.65
2023-05-14T23:44:23.604Z,1.65
2023-05-14T23:47:08.790Z,1.70
2023-05-14T23:49:53.920Z,1.52
2023-05-14T23:52:38.870Z,1.63
2023-05-14T23:55:23.828Z,1.13
2023-05-14T23:58:09.261Z,1.35
